.
WxDataArchive / Data Records for 2009-03-31
2009-03-30 March 2009 2009-04-01

Data Records for Tuesday, 31 March 2009

Time	Temp	Chill	HIndex	Humid	Dewpt	 Wind 	HiWind	WindDir	Rain 	Barom 
-----	----	-----	------	-----	-----	------	------	-------	-----	----- 
00:00	41.2	41.2	41.2	64	30.0	2	5	112	0.00	30.035 
00:05	41.3	41.3	41.3	64	30.1	2	7	112	0.00	30.033 
00:10	41.5	41.5	41.5	63	29.9	2	5	112	0.00	30.033 
00:15	41.5	41.5	41.5	64	30.2	2	4	112	0.00	30.035 
00:20	41.5	41.5	41.5	64	30.2	2	6	112	0.00	30.038 
00:25	41.5	41.5	41.5	64	30.2	2	4	112	0.00	30.036 
00:30	41.5	41.5	41.5	64	30.2	2	5	112	0.00	30.037 
00:35	41.5	41.5	41.5	64	30.2	2	6	90	0.00	30.037 
00:40	41.3	41.3	41.3	64	30.1	1	3	90	0.00	30.040 
00:45	41.3	41.3	41.3	65	30.4	1	4	90	0.00	30.044 
00:50	41.2	41.2	41.2	65	30.3	2	4	90	0.00	30.043 
00:55	41.2	41.2	41.2	65	30.3	2	5	112	0.00	30.042 
01:00	41.2	41.2	41.2	65	30.3	2	4	90	0.00	30.042 
01:05	41.2	41.2	41.2	65	30.3	2	4	90	0.00	30.042 
01:10	41.1	41.1	41.1	65	30.2	2	4	112	0.00	30.043 
01:15	41.1	41.1	41.1	65	30.2	2	5	112	0.00	30.045 
01:20	41.1	41.1	41.1	66	30.6	2	6	112	0.00	30.045 
01:25	40.9	40.9	40.9	67	30.8	2	5	90	0.00	30.042 
01:30	40.9	40.9	40.9	67	30.8	3	7	112	0.00	30.042 
01:35	40.8	40.8	40.8	67	30.7	3	5	90	0.00	30.041 
01:40	40.6	40.6	40.6	68	30.9	3	5	90	0.00	30.040 
01:45	40.5	40.5	40.5	69	31.1	2	4	90	0.00	30.038 
01:50	40.3	40.3	40.3	69	31.0	3	7	90	0.00	30.039 
01:55	40.2	40.2	40.2	69	30.9	2	4	90	0.00	30.042 
02:00	40.2	40.2	40.2	68	30.5	2	4	90	0.00	30.041 
02:05	40.2	40.2	40.2	68	30.5	3	7	90	0.00	30.036 
02:10	40.1	40.1	40.1	68	30.4	3	5	90	0.00	30.033 
02:15	40.1	40.1	40.1	69	30.8	3	7	90	0.00	30.033 
02:20	40.1	40.1	40.1	69	30.8	3	7	90	0.00	30.032 
02:25	39.9	39.9	39.9	69	30.6	3	5	112	0.00	30.033 
02:30	39.9	39.9	39.9	69	30.6	3	5	112	0.00	30.032 
02:35	39.9	37.2	39.9	69	30.6	4	9	112	0.00	30.033 
02:40	39.8	37.1	39.8	69	30.5	4	7	112	0.00	30.032 
02:45	39.6	39.6	39.6	69	30.3	3	7	90	0.00	30.031 
02:50	39.6	36.9	39.6	69	30.3	4	7	112	0.00	30.027 
02:55	39.6	36.9	39.6	69	30.3	4	7	112	0.00	30.028 
03:00	39.6	36.9	39.6	69	30.3	4	7	90	0.00	30.020 
03:05	39.6	39.6	39.6	69	30.3	3	7	90	0.00	30.018 
03:10	39.5	39.5	39.5	69	30.2	3	9	112	0.00	30.017 
03:15	39.5	36.7	39.5	69	30.2	4	7	112	0.00	30.015 
03:20	39.5	35.9	39.5	70	30.5	5	11	90	0.00	30.013 
03:25	39.3	36.5	39.3	70	30.3	4	7	112	0.00	30.008 
03:30	39.3	36.5	39.3	70	30.3	4	7	112	0.00	30.003 
03:35	39.2	35.5	39.2	70	30.3	5	11	90	0.00	30.001 
03:40	39.2	35.5	39.2	70	30.3	5	10	112	0.00	30.000 
03:45	39.2	36.4	39.2	70	30.3	4	7	90	0.00	30.001 
03:50	39.2	39.2	39.2	71	30.6	3	7	90	0.00	30.001 
03:55	39.2	39.2	39.2	72	30.9	3	7	90	0.00	30.000 
04:00	39.1	39.1	39.1	72	30.8	3	6	112	0.00	30.000 
04:05	39.1	39.1	39.1	73	31.2	3	6	90	0.00	30.000 
04:10	39.1	36.3	39.1	72	30.8	4	9	112	0.00	29.999 
04:15	39.1	39.1	39.1	72	30.8	3	7	90	0.00	30.000 
04:20	39.1	36.3	39.1	72	30.8	4	7	90	0.00	29.999 
04:25	38.9	35.2	38.9	72	30.7	5	7	90	0.00	29.997 
04:30	38.9	35.2	38.9	72	30.7	5	9	112	0.00	29.991 
04:35	38.8	35.1	38.8	72	30.6	5	11	90	0.00	29.985 
04:40	38.8	35.9	38.8	73	30.9	4	10	90	0.00	29.985 
04:45	38.8	35.9	38.8	73	30.9	4	10	90	0.00	29.985 
04:50	38.8	35.9	38.8	72	30.6	4	9	112	0.00	29.985 
04:55	38.8	35.1	38.8	72	30.6	5	10	112	0.00	29.986 
05:00	38.9	35.2	38.9	72	30.7	5	10	112	0.00	29.988 
05:05	38.9	36.0	38.9	71	30.3	4	9	90	0.00	29.988 
05:10	38.9	35.2	38.9	71	30.3	5	10	112	0.00	29.987 
05:15	38.9	35.2	38.9	71	30.3	5	9	112	0.00	29.986 
05:20	38.8	35.1	38.8	71	30.2	5	10	112	0.00	29.985 
05:25	38.8	35.9	38.8	72	30.6	4	10	112	0.00	29.986 
05:30	38.6	38.6	38.6	73	30.7	3	6	112	0.00	29.988 
05:35	38.5	35.6	38.5	73	30.6	4	7	112	0.00	29.985 
05:40	38.3	38.3	38.3	73	30.4	2	6	90	0.00	29.995 
05:45	38.3	38.3	38.3	73	30.4	2	4	112	0.00	29.998 
05:50	38.2	38.2	38.2	74	30.7	3	6	112	0.00	29.989 
05:55	38.2	38.2	38.2	74	30.7	3	6	112	0.00	29.994 
06:00	38.2	38.2	38.2	74	30.7	3	6	90	0.00	30.000 
06:05	38.2	35.2	38.2	74	30.7	4	9	90	0.00	29.998 
06:10	38.2	38.2	38.2	74	30.7	3	6	112	0.00	29.994 
06:15	38.2	38.2	38.2	74	30.7	3	6	90	0.00	30.002 
06:20	38.2	38.2	38.2	74	30.7	3	6	90	0.00	30.006 
06:25	38.2	38.2	38.2	74	30.7	1	4	90	0.00	30.007 
06:30	38.0	38.0	38.0	74	30.5	3	5	90	0.00	30.010 
06:35	38.0	38.0	38.0	75	30.8	3	6	90	0.00	30.010 
06:40	38.0	38.0	38.0	75	30.8	3	6	112	0.00	30.013 
06:45	38.0	38.0	38.0	75	30.8	2	4	90	0.00	30.016 
06:50	38.0	38.0	38.0	76	31.1	2	5	90	0.00	30.017 
06:55	38.0	38.0	38.0	76	31.1	3	5	112	0.00	30.016 
07:00	38.0	38.0	38.0	76	31.1	3	7	112	0.00	30.016 
07:05	38.0	35.0	38.0	76	31.1	4	10	112	0.00	30.014 
07:10	38.2	38.2	38.2	76	31.3	3	5	112	0.00	30.021 
07:15	38.2	35.2	38.2	76	31.3	4	9	112	0.00	30.019 
07:20	38.3	38.3	38.3	77	31.7	3	6	112	0.00	30.013 
07:25	38.5	35.6	38.5	77	31.9	4	7	112	0.00	30.007 
07:30	38.5	38.5	38.5	76	31.6	3	6	112	0.00	30.006 
07:35	38.5	35.6	38.5	76	31.6	4	7	90	0.00	30.003 
07:40	38.5	34.7	38.5	77	31.9	5	11	90	0.00	29.991 
07:45	38.6	35.7	38.6	77	32.0	4	9	90	0.00	30.003 
07:50	38.6	35.7	38.6	76	31.7	4	10	90	0.00	30.001 
07:55	38.8	38.8	38.8	76	31.9	3	9	112	0.00	30.003 
08:00	38.9	36.0	38.9	76	32.0	4	9	112	0.00	30.004 
08:05	39.2	36.4	39.2	76	32.3	4	9	112	0.00	30.006 
08:10	39.3	36.5	39.3	75	32.0	4	6	112	0.00	30.005 
08:15	39.6	36.9	39.6	75	32.3	4	6	112	0.00	30.005 
08:20	40.1	37.4	40.1	73	32.2	4	11	90	0.00	30.000 
08:25	40.5	37.9	40.5	73	32.5	4	7	112	0.00	29.996 
08:30	40.8	36.7	40.8	71	32.1	6	13	112	0.00	29.992 
08:35	41.1	41.1	41.1	72	32.8	2	9	112	0.00	29.999 
08:40	41.1	41.1	41.1	71	32.4	3	6	112	0.00	29.994 
08:45	41.1	41.1	41.1	71	32.4	3	6	112	0.00	29.990 
08:50	41.1	37.8	41.1	70	32.1	5	10	112	0.00	29.984 
08:55	41.2	37.9	41.2	69	31.8	5	11	112	0.00	29.982 
09:00	41.3	38.8	41.3	71	32.6	4	11	112	0.00	29.980 
09:05	41.5	41.5	41.5	70	32.5	3	7	112	0.00	29.974 
09:10	41.8	39.4	41.8	70	32.7	4	10	90	0.00	29.973 
09:15	41.9	38.0	41.9	69	32.5	6	12	112	0.00	29.962 
09:20	42.1	38.9	42.1	68	32.3	5	10	112	0.00	29.963 
09:25	42.3	39.2	42.3	69	32.9	5	11	112	0.00	29.969 
09:30	42.6	40.3	42.6	69	33.2	4	7	112	0.00	29.960 
09:35	42.9	40.7	42.9	69	33.4	4	7	112	0.00	29.955 
09:40	43.3	40.3	43.3	68	33.5	5	11	90	0.00	29.953 
09:45	43.8	43.8	43.8	68	33.9	3	7	112	0.00	29.952 
09:50	44.1	44.1	44.1	67	33.9	3	6	112	0.00	29.953 
09:55	44.5	42.5	44.5	66	33.9	4	7	112	0.00	29.951 
10:00	44.9	43.0	44.9	65	33.9	4	9	90	0.00	29.940 
10:05	45.2	43.3	45.2	65	34.1	4	8	112	0.00	29.940 
10:10	45.7	43.9	45.7	64	34.2	4	9	112	0.00	29.938 
10:15	46.2	44.5	46.2	63	34.3	4	10	112	0.00	29.934 
10:20	47.1	45.5	47.1	61	34.4	4	10	112	0.00	29.938 
10:25	47.9	45.8	47.9	57	33.4	5	10	112	0.00	29.923 
10:30	48.3	48.3	48.3	55	32.9	3	9	112	0.00	29.936 
10:35	48.8	48.8	48.8	55	33.4	3	10	90	0.00	29.933 
10:40	48.9	46.4	48.9	53	32.5	6	13	112	0.00	29.929 
10:45	49.1	47.2	49.1	53	32.7	5	10	112	0.00	29.921 
10:50	49.4	47.5	49.4	54	33.5	5	11	112	0.00	29.913 
10:55	49.6	47.2	49.6	52	32.7	6	11	112	0.00	29.904 
11:00	49.6	47.2	49.6	53	33.2	6	14	112	0.00	29.889 
11:05	49.6	47.2	49.6	53	33.2	6	11	90	0.00	29.889 
11:10	49.8	48.6	49.8	51	32.4	4	10	112	0.00	29.905 
11:15	49.8	49.8	49.8	53	33.4	3	7	112	0.00	29.904 
11:20	49.8	48.6	49.8	52	32.9	4	9	112	0.00	29.903 
11:25	49.8	49.8	49.8	53	33.4	2	6	90	0.00	29.904 
11:30	49.8	49.8	49.8	55	34.3	1	4	90	0.00	29.917 
11:35	49.8	49.8	49.8	53	33.4	3	7	90	0.00	29.920 
11:40	49.6	49.6	49.6	55	34.1	2	10	112	0.00	29.912 
11:45	49.5	49.5	49.5	59	35.8	1	5	112	0.00	29.908 
11:50	49.2	49.2	49.2	59	35.5	2	4	112	0.00	29.907 
11:55	49.1	47.8	49.1	59	35.4	4	7	90	0.00	29.888 
12:00	49.2	47.9	49.2	59	35.5	4	9	90	0.00	29.891 
12:05	49.4	48.2	49.4	61	36.5	4	8	112	0.00	29.898 
12:10	49.4	48.2	49.4	63	37.3	4	6	112	0.00	29.894 
12:15	49.2	49.2	49.2	63	37.1	3	7	112	0.00	29.895 
12:20	49.1	46.6	49.1	62	36.6	6	12	112	0.00	29.874 
12:25	49.1	46.6	49.1	62	36.6	6	14	90	0.00	29.856 
12:30	49.2	47.3	49.2	62	36.7	5	12	112	0.00	29.860 
12:35	49.4	47.0	49.4	61	36.5	6	16	112	0.00	29.860 
12:40	49.6	46.7	49.6	60	36.3	7	14	112	0.00	29.843 
12:45	49.8	46.9	49.8	59	36.1	7	14	90	0.00	29.836 
12:50	50.2	50.2	50.2	57	35.6	4	10	112	0.00	29.873 
12:55	50.8	50.8	50.8	58	36.6	3	10	90	0.00	29.878 
13:00	51.3	51.3	51.3	57	36.6	5	18	112	0.00	29.869 
13:05	51.6	51.6	51.6	54	35.5	6	12	112	0.00	29.855 
13:10	51.7	51.7	51.7	53	35.1	6	15	112	0.00	29.841 
13:15	51.7	51.7	51.7	54	35.6	5	11	112	0.00	29.836 
13:20	51.6	51.6	51.6	55	36.0	7	15	112	0.00	29.810 
13:25	51.6	51.6	51.6	56	36.4	6	13	90	0.00	29.809 
13:30	51.7	51.7	51.7	52	34.6	5	11	90	0.00	29.826 
13:35	52.2	52.2	52.2	53	35.6	4	10	112	0.00	29.830 
13:40	52.3	52.3	52.3	52	35.2	5	11	112	0.00	29.830 
13:45	52.8	52.8	52.8	52	35.7	4	12	90	0.00	29.822 
13:50	52.9	52.9	52.9	51	35.3	6	13	90	0.00	29.809 
13:55	52.9	52.9	52.9	54	36.7	5	14	112	0.00	29.804 
14:00	52.9	52.9	52.9	53	36.2	6	12	112	0.00	29.797 
14:05	53.1	53.1	53.1	54	36.9	5	12	112	0.00	29.791 
14:10	53.3	53.3	53.3	51	35.6	5	14	90	0.00	29.792 
14:15	53.6	53.6	53.6	50	35.4	6	15	90	0.00	29.787 
14:20	53.8	53.8	53.8	50	35.6	5	13	112	0.00	29.787 
14:25	53.9	53.9	53.9	49	35.2	6	12	112	0.00	29.783 
14:30	54.1	54.1	54.1	50	35.9	6	15	112	0.00	29.777 
14:35	54.4	54.4	54.4	47	34.6	5	13	112	0.00	29.775 
14:40	54.7	54.7	54.7	47	34.9	5	11	112	0.00	29.768 
14:45	55.0	55.0	55.0	45	34.1	6	14	90	0.00	29.764 
14:50	55.1	55.1	55.1	45	34.1	6	12	112	0.00	29.760 
14:55	55.1	55.1	55.1	45	34.1	5	12	112	0.00	29.759 
15:00	55.1	55.1	55.1	46	34.7	4	9	90	0.00	29.757 
15:05	55.1	55.1	55.1	46	34.7	3	10	112	0.00	29.759 
15:10	55.0	55.0	55.0	46	34.6	4	11	112	0.00	29.753 
15:15	54.8	54.8	54.8	47	35.0	4	12	112	0.00	29.747 
15:20	54.7	54.7	54.7	46	34.3	4	12	90	0.00	29.743 
15:25	54.7	54.7	54.7	47	34.9	4	12	112	0.00	29.744 
15:30	54.7	54.7	54.7	48	35.4	4	9	112	0.00	29.734 
15:35	54.8	54.8	54.8	49	36.0	3	6	90	0.00	29.732 
15:40	54.8	54.8	54.8	49	36.0	3	11	90	0.00	29.737 
15:45	54.8	54.8	54.8	49	36.0	2	6	112	0.00	29.734 
15:50	54.8	54.8	54.8	50	36.5	2	6	112	0.00	29.729 
15:55	54.8	54.8	54.8	49	36.0	3	9	112	0.00	29.726 
16:00	55.1	55.1	55.1	49	36.3	4	9	112	0.00	29.715 
16:05	55.3	55.3	55.3	49	36.5	4	7	112	0.00	29.710 
16:10	55.4	55.4	55.4	50	37.1	4	10	112	0.00	29.698 
16:15	55.4	55.4	55.4	49	36.6	5	11	90	0.00	29.696 
16:20	55.4	55.4	55.4	50	37.1	4	11	112	0.00	29.699 
16:25	55.1	55.1	55.1	53	38.3	4	10	112	0.00	29.696 
16:30	54.7	54.7	54.7	55	38.9	5	9	112	0.00	29.683 
16:35	54.7	54.7	54.7	57	39.8	3	7	112	0.00	29.681 
16:40	54.8	54.8	54.8	55	38.9	4	9	112	0.00	29.681 
16:45	55.1	55.1	55.1	55	39.2	4	10	112	0.00	29.682 
16:50	55.4	55.4	55.4	55	39.5	4	10	90	0.00	29.687 
16:55	55.6	55.6	55.6	55	39.7	3	6	112	0.00	29.691 
17:00	55.6	55.6	55.6	56	40.2	3	10	112	0.00	29.695 
17:05	55.6	55.6	55.6	56	40.2	2	6	90	0.00	29.697 
17:10	55.6	55.6	55.6	57	40.6	2	7	90	0.00	29.710 
17:15	55.7	55.7	55.7	60	42.0	3	7	90	0.00	29.719 
17:20	55.6	55.6	55.6	62	42.8	2	4	90	0.01	29.725 
17:25	55.1	55.1	55.1	67	44.3	1	3	112	0.00	29.729 
17:30	54.7	54.7	54.7	70	45.1	0	2	112	0.01	29.730 
17:35	54.1	54.1	54.1	73	45.6	0	2	112	0.00	29.736 
17:40	53.6	53.6	53.6	75	45.9	0	1	135	0.01	29.738 
17:45	53.3	53.3	53.3	77	46.3	0	3	135	0.00	29.732 
17:50	53.1	53.1	53.1	78	46.4	1	3	135	0.01	29.726 
17:55	52.8	52.8	52.8	78	46.1	1	4	90	0.00	29.720 
18:00	52.6	52.6	52.6	79	46.3	1	3	90	0.00	29.718 
18:05	52.5	52.5	52.5	79	46.2	1	3	135	0.00	29.714 
18:10	52.5	52.5	52.5	80	46.5	1	3	135	0.01	29.713 
18:15	52.3	52.3	52.3	80	46.3	1	3	135	0.01	29.711 
18:20	52.2	52.2	52.2	80	46.2	2	5	90	0.00	29.707 
18:25	52.2	52.2	52.2	81	46.5	1	4	90	0.01	29.700 
18:30	52.0	52.0	52.0	81	46.4	2	4	112	0.01	29.699 
18:35	52.0	52.0	52.0	81	46.4	2	5	112	0.00	29.697 
18:40	52.0	52.0	52.0	81	46.4	1	5	112	0.00	29.696 
18:45	51.9	51.9	51.9	82	46.6	1	4	112	0.00	29.688 
18:50	51.9	51.9	51.9	82	46.6	2	4	68	0.00	29.689 
18:55	51.9	51.9	51.9	81	46.3	2	5	135	0.00	29.691 
19:00	51.9	51.9	51.9	81	46.3	2	5	112	0.00	29.686 
19:05	52.0	52.0	52.0	80	46.0	1	4	112	0.00	29.684 
19:10	52.0	52.0	52.0	80	46.0	2	6	90	0.00	29.683 
19:15	52.3	52.3	52.3	78	45.6	2	4	90	0.00	29.682 
19:20	52.5	52.5	52.5	78	45.8	1	4	112	0.00	29.681 
19:25	52.8	52.8	52.8	77	45.8	2	5	90	0.00	29.680 
19:30	52.9	52.9	52.9	76	45.5	2	9	90	0.00	29.681 
19:35	53.1	53.1	53.1	76	45.7	2	6	112	0.00	29.680 
19:40	53.1	53.1	53.1	76	45.7	1	4	112	0.00	29.678 
19:45	53.2	53.2	53.2	75	45.5	2	4	90	0.00	29.677 
19:50	53.2	53.2	53.2	75	45.5	2	5	90	0.00	29.675 
19:55	53.3	53.3	53.3	75	45.6	2	6	90	0.00	29.670 
20:00	53.3	53.3	53.3	75	45.6	2	7	68	0.00	29.670 
20:05	53.3	53.3	53.3	75	45.6	2	7	90	0.00	29.666 
20:10	53.3	53.3	53.3	75	45.6	2	6	90	0.00	29.667 
20:15	53.3	53.3	53.3	75	45.6	2	5	90	0.00	29.664 
20:20	53.2	53.2	53.2	75	45.5	2	6	90	0.00	29.663 
20:25	53.2	53.2	53.2	76	45.8	2	6	112	0.00	29.664 
20:30	53.1	53.1	53.1	76	45.7	2	6	112	0.00	29.664 
20:35	53.1	53.1	53.1	77	46.1	2	5	112	0.00	29.665 
20:40	52.9	52.9	52.9	77	45.9	2	5	90	0.00	29.664 
20:45	52.9	52.9	52.9	77	45.9	2	6	90	0.00	29.664 
20:50	52.8	52.8	52.8	77	45.8	2	7	135	0.00	29.662 
20:55	52.8	52.8	52.8	77	45.8	2	5	135	0.00	29.661 
21:00	52.8	52.8	52.8	77	45.8	2	5	90	0.00	29.659 
21:05	52.8	52.8	52.8	77	45.8	2	6	90	0.00	29.653 
21:10	52.9	52.9	52.9	77	45.9	3	6	90	0.00	29.651 
21:15	52.9	52.9	52.9	77	45.9	2	5	112	0.00	29.653 
21:20	52.8	52.8	52.8	77	45.8	2	10	112	0.00	29.652 
21:25	52.9	52.9	52.9	77	45.9	3	9	90	0.00	29.650 
21:30	52.9	52.9	52.9	77	45.9	3	6	90	0.00	29.651 
21:35	52.9	52.9	52.9	77	45.9	3	7	90	0.00	29.647 
21:40	52.9	52.9	52.9	77	45.9	3	7	112	0.00	29.648 
21:45	52.9	52.9	52.9	77	45.9	3	6	90	0.00	29.647 
21:50	52.8	52.8	52.8	77	45.8	2	6	90	0.00	29.648 
21:55	52.6	52.6	52.6	78	45.9	3	9	90	0.00	29.648 
22:00	52.5	52.5	52.5	78	45.8	3	8	90	0.00	29.647 
22:05	52.5	52.5	52.5	78	45.8	2	6	112	0.00	29.646 
22:10	52.3	52.3	52.3	79	46.0	3	10	90	0.00	29.644 
22:15	52.3	52.3	52.3	79	46.0	2	6	90	0.00	29.645 
22:20	52.5	52.5	52.5	78	45.8	3	7	338	0.00	29.645 
22:25	52.5	52.5	52.5	79	46.2	2	6	90	0.00	29.646 
22:30	52.5	52.5	52.5	79	46.2	2	6	45	0.00	29.647 
22:35	52.5	52.5	52.5	79	46.2	2	6	112	0.00	29.646 
22:40	52.6	52.6	52.6	79	46.3	3	9	90	0.00	29.645 
22:45	52.6	52.6	52.6	79	46.3	2	7	90	0.00	29.644 
22:50	52.5	52.5	52.5	79	46.2	2	9	90	0.00	29.646 
22:55	52.6	52.6	52.6	79	46.3	2	7	90	0.00	29.646 
23:00	52.6	52.6	52.6	79	46.3	2	5	68	0.00	29.643 
23:05	52.5	52.5	52.5	79	46.2	2	5	90	0.00	29.643 
23:10	52.5	52.5	52.5	80	46.5	1	4	292	0.00	29.644 
23:15	52.3	52.3	52.3	80	46.3	2	10	90	0.00	29.647 
23:20	52.3	52.3	52.3	80	46.3	2	5	90	0.00	29.644 
23:25	52.2	52.2	52.2	80	46.2	2	9	90	0.00	29.645 
23:30	52.2	52.2	52.2	81	46.5	1	6	270	0.00	29.648 
23:35	52.2	52.2	52.2	81	46.5	3	10	270	0.00	29.672 
23:40	51.0	51.0	51.0	73	42.7	3	8	248	0.00	29.676 
23:45	49.8	49.8	49.8	74	41.9	3	6	270	0.00	29.681 
23:50	48.8	47.5	48.8	75	41.2	4	10	270	0.00	29.684 
23:55	48.0	45.9	48.0	76	40.8	5	11	270	0.00	29.691 

CoCoRaHS
IN-AL-39
A2 Web Hosting
Creative Commons License
GoDaddy
search engine by freefind advanced

loaded 2018-11-13 22:23:40 • last modified 2010-11-18 10:43:29
Privacy PolicyDisclaimer
• wx.awcolley.com is powered by PmWiki v.2002016 •
• all content (unless otherwise noted) © 2018 A W Colley